createdAt,value
2022-12-25T00:00:30.570Z,7.20
2022-12-25T00:03:24.414Z,7.20
2022-12-25T00:06:00.818Z,7.10
2022-12-25T00:08:35.412Z,7.10
2022-12-25T00:11:13.144Z,7.00
2022-12-25T00:13:48.333Z,7.00
2022-12-25T00:16:25.573Z,7.00
2022-12-25T00:19:01.565Z,7.00
2022-12-25T00:21:35.302Z,7.00
2022-12-25T00:24:10.537Z,7.00
2022-12-25T00:26:44.320Z,7.00
2022-12-25T00:29:18.739Z,7.02
2022-12-25T00:31:52.679Z,7.00
2022-12-25T00:34:27.239Z,7.00
2022-12-25T00:37:01.069Z,6.98
2022-12-25T00:39:35.181Z,6.92
2022-12-25T00:42:23.902Z,6.90
2022-12-25T00:44:57.589Z,6.96
2022-12-25T00:47:32.519Z,6.90
2022-12-25T00:50:08.396Z,6.96
2022-12-25T00:52:42.502Z,7.00
2022-12-25T00:55:16.534Z,7.10
2022-12-25T00:57:50.591Z,7.10
2022-12-25T01:00:26.349Z,7.10
2022-12-25T01:03:00.654Z,7.18
2022-12-25T01:05:36.052Z,7.20
2022-12-25T01:08:11.081Z,7.20
2022-12-25T01:10:45.175Z,7.20
2022-12-25T01:13:19.237Z,7.20
2022-12-25T01:15:54.604Z,7.20
2022-12-25T01:18:29.524Z,7.20
2022-12-25T01:21:09.261Z,7.20
2022-12-25T01:23:43.679Z,7.20
2022-12-25T01:26:19.537Z,7.20
2022-12-25T01:28:54.691Z,7.20
2022-12-25T01:31:29.358Z,7.10
2022-12-25T01:34:03.534Z,7.00
2022-12-25T01:36:37.624Z,6.90
2022-12-25T01:39:11.942Z,6.80
2022-12-25T01:41:46.154Z,6.80
2022-12-25T01:45:10.866Z,6.70
2022-12-25T01:47:45.060Z,6.70
2022-12-25T01:50:20.444Z,6.70
2022-12-25T01:52:55.980Z,6.66
2022-12-25T01:55:31.645Z,6.70
2022-12-25T01:58:06.142Z,6.68
2022-12-25T02:00:39.997Z,6.70
2022-12-25T02:03:14.903Z,6.70
2022-12-25T02:05:51.768Z,6.70
2022-12-25T02:08:27.100Z,6.60
2022-12-25T02:11:01.821Z,6.60
2022-12-25T02:13:37.674Z,6.60
2022-12-25T02:16:22.367Z,6.60
2022-12-25T02:19:04.488Z,6.60
2022-12-25T02:22:07.662Z,6.50
2022-12-25T02:25:05.414Z,6.50
2022-12-25T02:28:11.149Z,6.50
2022-12-25T02:30:53.321Z,6.50
2022-12-25T02:33:54.657Z,6.50
2022-12-25T02:36:34.414Z,6.50
2022-12-25T02:39:34.089Z,6.58
2022-12-25T02:42:15.009Z,6.50
2022-12-25T02:45:10.353Z,6.48
2022-12-25T02:48:02.339Z,6.40
2022-12-25T02:50:54.633Z,6.40
2022-12-25T02:53:47.215Z,6.30
2022-12-25T02:56:47.184Z,6.30
2022-12-25T02:59:52.585Z,6.12
2022-12-25T03:02:47.535Z,6.00
2022-12-25T03:05:44.797Z,5.90
2022-12-25T03:08:27.093Z,5.88
2022-12-25T03:11:31.420Z,5.80
2022-12-25T03:14:27.292Z,5.80
2022-12-25T03:17:03.532Z,5.72
2022-12-25T03:19:56.473Z,5.66
2022-12-25T03:22:51.627Z,5.60
2022-12-25T03:25:43.594Z,5.70
2022-12-25T03:28:18.024Z,5.80
2022-12-25T03:31:13.624Z,5.80
2022-12-25T03:34:49.378Z,5.80
2022-12-25T03:38:13.333Z,5.90
2022-12-25T03:41:18.988Z,5.90
2022-12-25T03:44:37.174Z,5.92
2022-12-25T03:47:41.201Z,5.92
2022-12-25T03:50:43.152Z,5.80
2022-12-25T03:53:42.057Z,5.80
2022-12-25T03:56:35.551Z,5.78
2022-12-25T03:59:26.875Z,5.70
2022-12-25T04:02:18.785Z,5.60
2022-12-25T04:05:10.309Z,5.50
2022-12-25T04:08:01.742Z,5.40
2022-12-25T04:10:53.325Z,5.30
2022-12-25T04:13:44.771Z,5.20
2022-12-25T04:16:36.203Z,5.14
2022-12-25T04:19:28.690Z,5.00
2022-12-25T04:22:20.141Z,4.90
2022-12-25T04:25:11.580Z,4.90
2022-12-25T04:28:03.213Z,4.80
2022-12-25T04:30:54.456Z,4.80
2022-12-25T04:33:46.026Z,4.70
2022-12-25T04:36:20.406Z,4.70
2022-12-25T04:38:54.337Z,4.60
2022-12-25T04:41:28.630Z,4.58
2022-12-25T04:44:02.834Z,4.58
2022-12-25T04:46:37.242Z,4.50
2022-12-25T04:49:11.169Z,4.50
2022-12-25T04:51:44.955Z,4.40
2022-12-25T04:54:19.273Z,4.40
2022-12-25T04:56:53.811Z,4.30
2022-12-25T04:59:28.029Z,4.30
2022-12-25T05:02:02.052Z,4.20
2022-12-25T05:04:37.334Z,4.10
2022-12-25T05:07:11.526Z,4.08
2022-12-25T05:09:45.547Z,4.00
2022-12-25T05:12:20.122Z,4.00
2022-12-25T05:14:54.055Z,4.00
2022-12-25T05:17:27.974Z,4.00
2022-12-25T05:20:02.006Z,4.00
2022-12-25T05:22:36.086Z,4.00
2022-12-25T05:25:12.622Z,4.00
2022-12-25T05:27:52.109Z,4.00
2022-12-25T05:30:28.547Z,4.00
2022-12-25T05:33:02.520Z,4.00
2022-12-25T05:35:39.170Z,4.00
2022-12-25T05:38:13.475Z,4.00
2022-12-25T05:40:47.583Z,4.00
2022-12-25T05:43:21.815Z,4.00
2022-12-25T05:45:55.766Z,3.98
2022-12-25T05:48:30.438Z,4.00
2022-12-25T05:51:10.146Z,4.00
2022-12-25T05:53:46.055Z,4.06
2022-12-25T05:56:20.471Z,4.10
2022-12-25T05:58:54.469Z,4.10
2022-12-25T06:01:31.647Z,4.10
2022-12-25T06:04:12.141Z,4.10
2022-12-25T06:06:47.259Z,4.10
2022-12-25T06:09:21.406Z,4.16
2022-12-25T06:11:55.519Z,4.16
2022-12-25T06:14:30.034Z,4.10
2022-12-25T06:17:04.365Z,4.10
2022-12-25T06:19:39.153Z,4.10
2022-12-25T06:22:13.477Z,4.00
2022-12-25T06:24:47.591Z,4.00
2022-12-25T06:27:21.905Z,3.90
2022-12-25T06:29:56.231Z,3.90
2022-12-25T06:32:30.340Z,3.80
2022-12-25T06:35:04.258Z,3.82
2022-12-25T06:37:38.792Z,3.80
2022-12-25T06:40:14.958Z,3.80
2022-12-25T06:42:48.628Z,3.80
2022-12-25T06:45:22.496Z,3.80
2022-12-25T06:47:56.876Z,3.74
2022-12-25T06:50:30.698Z,3.70
2022-12-25T06:53:04.798Z,3.60
2022-12-25T06:55:38.813Z,3.60
2022-12-25T06:58:13.123Z,3.50
2022-12-25T07:00:47.774Z,3.50
2022-12-25T07:03:24.369Z,3.50
2022-12-25T07:05:58.967Z,3.40
2022-12-25T07:08:32.980Z,3.30
2022-12-25T07:11:07.289Z,3.30
2022-12-25T07:13:42.825Z,3.30
2022-12-25T07:16:17.500Z,3.30
2022-12-25T07:18:51.930Z,3.30
2022-12-25T07:21:26.140Z,3.28
2022-12-25T07:24:00.294Z,3.20
2022-12-25T07:26:34.345Z,3.20
2022-12-25T07:29:09.066Z,3.24
2022-12-25T07:31:43.436Z,3.30
2022-12-25T07:34:19.437Z,3.30
2022-12-25T07:36:53.273Z,3.30
2022-12-25T07:39:27.290Z,3.32
2022-12-25T07:42:01.575Z,3.40
2022-12-25T07:44:35.560Z,3.40
2022-12-25T07:47:09.915Z,3.50
2022-12-25T07:49:43.611Z,3.54
2022-12-25T07:52:17.580Z,3.60
2022-12-25T07:54:51.651Z,3.60
2022-12-25T07:57:25.372Z,3.60
2022-12-25T07:59:59.607Z,3.68
2022-12-25T08:02:33.845Z,3.70
2022-12-25T08:05:10.884Z,3.70
2022-12-25T08:07:44.685Z,3.70
2022-12-25T08:10:18.816Z,3.78
2022-12-25T08:12:52.915Z,3.80
2022-12-25T08:15:28.631Z,3.80
2022-12-25T08:18:02.402Z,3.80
2022-12-25T08:20:36.809Z,3.80
2022-12-25T08:23:10.742Z,3.84
2022-12-25T08:25:44.540Z,3.88
2022-12-25T08:28:18.636Z,3.90
2022-12-25T08:30:52.384Z,4.00
2022-12-25T08:33:26.414Z,4.10
2022-12-25T08:36:07.966Z,4.14
2022-12-25T08:38:42.399Z,4.20
2022-12-25T08:41:17.724Z,4.30
2022-12-25T08:43:51.852Z,4.40
2022-12-25T08:46:26.134Z,4.50
2022-12-25T08:49:01.071Z,4.60
2022-12-25T08:51:37.345Z,4.70
2022-12-25T08:54:12.078Z,4.72
2022-12-25T08:56:47.766Z,4.80
2022-12-25T08:59:22.032Z,4.96
2022-12-25T09:01:55.858Z,5.10
2022-12-25T09:04:31.271Z,5.20
2022-12-25T09:07:05.155Z,5.30
2022-12-25T09:09:39.307Z,5.50
2022-12-25T09:12:13.624Z,5.70
2022-12-25T09:14:47.500Z,5.90
2022-12-25T09:17:21.649Z,6.14
2022-12-25T09:19:55.372Z,6.40
2022-12-25T09:22:29.868Z,6.62
2022-12-25T09:25:03.849Z,6.90
2022-12-25T09:27:37.576Z,7.18
2022-12-25T09:30:13.641Z,7.48
2022-12-25T09:32:47.427Z,7.70
2022-12-25T09:35:21.937Z,7.94
2022-12-25T09:37:55.912Z,8.20
2022-12-25T09:40:33.467Z,8.50
2022-12-25T09:43:12.327Z,8.80
2022-12-25T09:45:47.591Z,9.10
2022-12-25T09:48:22.209Z,9.30
2022-12-25T09:51:02.689Z,9.40
2022-12-25T09:53:44.849Z,9.60
2022-12-25T09:56:25.881Z,9.70
2022-12-25T09:59:00.408Z,9.70
2022-12-25T10:01:50.303Z,9.98
2022-12-25T10:04:44.207Z,10.26
2022-12-25T10:07:36.270Z,10.48
2022-12-25T10:10:35.256Z,10.70
2022-12-25T10:13:39.577Z,11.00
2022-12-25T10:16:27.388Z,11.36
2022-12-25T10:19:21.028Z,11.50
2022-12-25T10:21:59.730Z,11.70
2022-12-25T10:24:41.960Z,11.60
2022-12-25T10:27:24.769Z,11.76
2022-12-25T10:29:59.918Z,12.00
2022-12-25T10:32:34.285Z,12.24
2022-12-25T10:35:13.468Z,12.30
2022-12-25T10:37:51.294Z,12.30
2022-12-25T10:40:37.944Z,12.40
2022-12-25T10:43:20.943Z,12.50
2022-12-25T10:45:54.804Z,12.60
2022-12-25T10:48:33.775Z,12.50
2022-12-25T10:51:08.664Z,12.46
2022-12-25T10:53:45.407Z,12.50
2022-12-25T10:56:21.878Z,12.70
2022-12-25T10:59:07.329Z,12.80
2022-12-25T11:01:41.566Z,12.80
2022-12-25T11:04:25.871Z,12.82
2022-12-25T11:07:07.929Z,13.00
2022-12-25T11:09:50.003Z,13.04
2022-12-25T11:12:36.495Z,13.04
2022-12-25T11:15:38.011Z,13.00
2022-12-25T11:18:24.430Z,13.28
2022-12-25T11:21:01.203Z,13.40
2022-12-25T11:23:36.053Z,13.36
2022-12-25T11:26:12.412Z,13.30
2022-12-25T11:28:49.672Z,13.58
2022-12-25T11:31:29.156Z,13.82
2022-12-25T11:34:08.254Z,13.90
2022-12-25T11:36:51.686Z,13.80
2022-12-25T11:39:30.930Z,13.70
2022-12-25T11:42:15.342Z,13.80
2022-12-25T11:44:58.250Z,14.08
2022-12-25T11:47:43.081Z,14.10
2022-12-25T11:50:29.971Z,14.20
2022-12-25T11:53:11.145Z,14.20
2022-12-25T11:55:54.849Z,14.40
2022-12-25T11:58:34.544Z,14.56
2022-12-25T12:01:20.187Z,14.60
2022-12-25T12:03:54.241Z,14.70
2022-12-25T12:06:43.944Z,14.82
2022-12-25T12:09:37.957Z,14.60
2022-12-25T12:12:21.827Z,14.60
2022-12-25T12:15:08.293Z,14.60
2022-12-25T12:17:41.949Z,14.66
2022-12-25T12:20:34.630Z,14.74
2022-12-25T12:23:17.645Z,14.80
2022-12-25T12:25:52.158Z,14.90
2022-12-25T12:28:29.509Z,15.04
2022-12-25T12:31:07.976Z,15.44
2022-12-25T12:33:50.060Z,15.90
2022-12-25T12:36:35.694Z,16.20
2022-12-25T12:39:22.011Z,16.22
2022-12-25T12:41:56.360Z,16.30
2022-12-25T12:44:36.332Z,16.30
2022-12-25T12:47:31.345Z,16.40
2022-12-25T12:50:07.073Z,16.10
2022-12-25T12:52:42.757Z,15.82
2022-12-25T12:55:17.008Z,15.70
2022-12-25T12:58:01.395Z,15.50
2022-12-25T13:00:50.057Z,15.40
2022-12-25T13:03:40.741Z,15.60
2022-12-25T13:06:22.174Z,15.60
2022-12-25T13:09:14.311Z,15.50
2022-12-25T13:11:49.015Z,15.40
2022-12-25T13:14:26.143Z,15.60
2022-12-25T13:17:00.577Z,15.52
2022-12-25T13:19:36.054Z,15.60
2022-12-25T13:22:24.379Z,15.60
2022-12-25T13:25:06.444Z,15.38
2022-12-25T13:27:40.351Z,15.04
2022-12-25T13:30:26.094Z,14.46
2022-12-25T13:33:00.230Z,13.98
2022-12-25T13:35:34.338Z,13.60
2022-12-25T13:38:15.972Z,13.40
2022-12-25T13:41:15.271Z,13.10
2022-12-25T13:43:51.089Z,12.82
2022-12-25T13:46:31.274Z,12.64
2022-12-25T13:49:13.568Z,12.40
2022-12-25T13:51:47.526Z,12.30
2022-12-25T13:54:22.179Z,12.30
2022-12-25T13:56:58.323Z,12.32
2022-12-25T13:59:32.033Z,12.28
2022-12-25T14:02:15.582Z,12.10
2022-12-25T14:04:49.701Z,11.86
2022-12-25T14:07:27.251Z,11.60
2022-12-25T14:10:05.899Z,11.40
2022-12-25T14:12:39.935Z,11.30
2022-12-25T14:15:21.666Z,11.04
2022-12-25T14:17:56.166Z,10.80
2022-12-25T14:20:35.004Z,10.60
2022-12-25T14:23:15.994Z,10.42
2022-12-25T14:25:50.929Z,10.30
2022-12-25T14:28:32.437Z,10.14
2022-12-25T14:31:07.370Z,10.00
2022-12-25T14:33:44.257Z,9.90
2022-12-25T14:36:18.813Z,9.80
2022-12-25T14:39:03.435Z,9.70
2022-12-25T14:41:42.160Z,9.50
2022-12-25T14:47:21.934Z,9.22
2022-12-25T14:49:55.882Z,9.20
2022-12-25T14:52:36.212Z,9.10
2022-12-25T14:55:22.004Z,9.00
2022-12-25T14:57:59.430Z,8.90
2022-12-25T15:00:36.527Z,8.80
2022-12-25T15:03:24.349Z,8.80
2022-12-25T15:06:05.348Z,8.70
2022-12-25T15:08:41.249Z,8.60
2022-12-25T15:11:14.886Z,8.50
2022-12-25T15:13:48.608Z,8.40
2022-12-25T15:16:26.097Z,8.40
2022-12-25T15:19:01.800Z,8.40
2022-12-25T15:21:38.864Z,8.38
2022-12-25T15:24:16.192Z,8.30
2022-12-25T15:26:50.144Z,8.22
2022-12-25T15:29:59.690Z,8.20
2022-12-25T15:32:23.392Z,8.10
2022-12-25T15:34:57.169Z,8.10
2022-12-25T15:37:31.227Z,8.10
2022-12-25T15:40:06.741Z,8.10
2022-12-25T15:42:41.004Z,8.10
2022-12-25T15:45:24.236Z,8.02
2022-12-25T15:47:58.653Z,8.00
2022-12-25T15:50:36.814Z,8.00
2022-12-25T15:53:11.312Z,8.00
2022-12-25T15:55:45.944Z,8.00
2022-12-25T15:58:19.980Z,8.00
2022-12-25T16:00:54.940Z,7.94
2022-12-25T16:03:28.849Z,7.92
2022-12-25T16:06:05.723Z,7.94
2022-12-25T16:08:39.814Z,7.90
2022-12-25T16:11:14.489Z,7.90
2022-12-25T16:13:48.477Z,7.86
2022-12-25T16:16:22.827Z,7.80
2022-12-25T16:18:57.224Z,7.80
2022-12-25T16:21:39.136Z,7.80
2022-12-25T16:24:14.188Z,7.80
2022-12-25T16:26:48.663Z,7.80
2022-12-25T16:29:22.485Z,7.70
2022-12-25T16:31:56.456Z,7.70
2022-12-25T16:34:30.717Z,7.70
2022-12-25T16:37:05.093Z,7.70
2022-12-25T16:39:39.296Z,7.70
2022-12-25T16:42:14.054Z,7.70
2022-12-25T16:44:48.486Z,7.70
2022-12-25T16:47:22.570Z,7.70
2022-12-25T16:49:58.653Z,7.70
2022-12-25T16:52:33.092Z,7.72
2022-12-25T16:55:08.757Z,7.80
2022-12-25T16:57:42.761Z,7.80
2022-12-25T17:00:19.747Z,7.78
2022-12-25T17:02:53.992Z,7.70
2022-12-25T17:05:29.109Z,7.70
2022-12-25T17:08:03.614Z,7.72
2022-12-25T17:10:40.884Z,7.80
2022-12-25T17:13:14.978Z,7.78
2022-12-25T17:15:50.766Z,7.72
2022-12-25T17:18:25.070Z,7.72
2022-12-25T17:20:59.041Z,7.70
2022-12-25T17:23:32.922Z,7.78
2022-12-25T17:26:07.349Z,7.70
2022-12-25T17:28:41.587Z,7.70
2022-12-25T17:31:16.709Z,7.62
2022-12-25T17:33:51.046Z,7.60
2022-12-25T17:36:26.081Z,7.60
2022-12-25T17:39:01.977Z,7.60
2022-12-25T17:41:36.277Z,7.70
2022-12-25T17:44:10.149Z,7.70
2022-12-25T17:46:44.520Z,7.70
2022-12-25T17:49:21.873Z,7.60
2022-12-25T17:51:56.565Z,7.60
2022-12-25T17:54:30.534Z,7.60
2022-12-25T17:57:04.430Z,7.60
2022-12-25T17:59:38.544Z,7.60
2022-12-25T18:02:13.658Z,7.60
2022-12-25T18:04:48.275Z,7.50
2022-12-25T18:07:22.017Z,7.50
2022-12-25T18:09:57.284Z,7.50
2022-12-25T18:12:32.599Z,7.52
2022-12-25T18:15:07.783Z,7.50
2022-12-25T18:17:41.617Z,7.50
2022-12-25T18:20:16.271Z,7.50
2022-12-25T18:22:50.130Z,7.50
2022-12-25T18:25:24.016Z,7.50
2022-12-25T18:27:57.798Z,7.50
2022-12-25T18:30:31.749Z,7.40
2022-12-25T18:33:05.610Z,7.40
2022-12-25T18:35:44.463Z,7.40
2022-12-25T18:38:19.033Z,7.40
2022-12-25T18:40:54.309Z,7.40
2022-12-25T18:43:51.433Z,7.40
2022-12-25T18:46:24.599Z,7.40
2022-12-25T18:48:59.532Z,7.40
2022-12-25T18:51:37.105Z,7.40
2022-12-25T18:54:11.475Z,7.42
2022-12-25T18:56:50.675Z,7.42
2022-12-25T18:59:27.076Z,7.46
2022-12-25T19:02:00.870Z,7.40
2022-12-25T19:04:34.897Z,7.40
2022-12-25T19:07:08.823Z,7.40
2022-12-25T19:09:42.812Z,7.48
2022-12-25T19:12:17.908Z,7.50
2022-12-25T19:14:52.082Z,7.46
2022-12-25T19:17:39.694Z,7.40
2022-12-25T19:20:20.828Z,7.40
2022-12-25T19:22:55.466Z,7.44
2022-12-25T19:25:30.402Z,7.50
2022-12-25T19:28:04.510Z,7.50
2022-12-25T19:30:40.401Z,7.50
2022-12-25T19:33:18.051Z,7.50
2022-12-25T19:35:55.499Z,7.50
2022-12-25T19:38:30.568Z,7.50
2022-12-25T19:41:09.068Z,7.50
2022-12-25T19:43:45.722Z,7.50
2022-12-25T19:46:23.456Z,7.50
2022-12-25T19:48:59.171Z,7.50
2022-12-25T19:51:37.665Z,7.44
2022-12-25T19:54:15.245Z,7.50
2022-12-25T19:56:49.625Z,7.50
2022-12-25T19:59:24.895Z,7.50
2022-12-25T20:01:59.157Z,7.50
2022-12-25T20:04:33.445Z,7.50
2022-12-25T20:07:07.576Z,7.50
2022-12-25T20:09:41.992Z,7.50
2022-12-25T20:12:16.401Z,7.48
2022-12-25T20:14:50.842Z,7.40
2022-12-25T20:17:24.841Z,7.36
2022-12-25T20:19:58.740Z,7.30
2022-12-25T20:22:32.925Z,7.30
2022-12-25T20:25:09.811Z,7.30
2022-12-25T20:27:43.645Z,7.30
2022-12-25T20:30:18.679Z,7.30
2022-12-25T20:32:52.621Z,7.20
2022-12-25T20:35:26.470Z,7.22
2022-12-25T20:38:00.511Z,7.30
2022-12-25T20:40:53.044Z,7.30
2022-12-25T20:43:28.692Z,7.30
2022-12-25T20:46:05.678Z,7.30
2022-12-25T20:48:40.353Z,7.30
2022-12-25T20:51:19.194Z,7.30
2022-12-25T20:53:53.878Z,7.30
2022-12-25T20:56:30.378Z,7.30
2022-12-25T20:59:05.201Z,7.30
2022-12-25T21:01:39.428Z,7.30
2022-12-25T21:04:16.528Z,7.30
2022-12-25T21:06:50.831Z,7.30
2022-12-25T21:09:24.911Z,7.30
2022-12-25T21:11:58.815Z,7.30
2022-12-25T21:14:32.704Z,7.32
2022-12-25T21:17:06.903Z,7.40
2022-12-25T21:19:40.973Z,7.30
2022-12-25T21:22:15.367Z,7.40
2022-12-25T21:24:52.236Z,7.40
2022-12-25T21:27:26.956Z,7.40
2022-12-25T21:30:14.906Z,7.40
2022-12-25T21:33:07.892Z,7.40
2022-12-25T21:35:42.600Z,7.40
2022-12-25T21:38:17.487Z,7.40
2022-12-25T21:40:51.846Z,7.48
2022-12-25T21:43:25.774Z,7.50
2022-12-25T21:46:05.558Z,7.50
2022-12-25T21:48:41.575Z,7.50
2022-12-25T21:51:42.406Z,7.50
2022-12-25T21:54:18.268Z,7.60
2022-12-25T21:56:52.940Z,7.60
2022-12-25T21:59:27.607Z,7.62
2022-12-25T22:02:02.000Z,7.70
2022-12-25T22:04:38.088Z,7.70
2022-12-25T22:07:19.848Z,7.70
2022-12-25T22:09:54.904Z,7.70
2022-12-25T22:12:46.691Z,7.72
2022-12-25T22:15:21.008Z,7.78
2022-12-25T22:18:12.657Z,7.70
2022-12-25T22:20:47.011Z,7.70
2022-12-25T22:23:21.658Z,7.60
2022-12-25T22:25:56.050Z,7.60
2022-12-25T22:28:30.728Z,7.60
2022-12-25T22:31:09.097Z,7.60
2022-12-25T22:33:43.375Z,7.60
2022-12-25T22:36:17.596Z,7.60
2022-12-25T22:38:52.528Z,7.60
2022-12-25T22:41:31.510Z,7.60
2022-12-25T22:44:17.791Z,7.60
2022-12-25T22:46:52.292Z,7.60
2022-12-25T22:49:26.757Z,7.60
2022-12-25T22:52:01.108Z,7.60
2022-12-25T22:54:35.997Z,7.60
2022-12-25T22:57:10.053Z,7.60
2022-12-25T22:59:44.543Z,7.60
2022-12-25T23:02:18.876Z,7.60
2022-12-25T23:04:53.656Z,7.62
2022-12-25T23:07:27.635Z,7.64
2022-12-25T23:10:02.377Z,7.62
2022-12-25T23:12:54.173Z,7.62
2022-12-25T23:15:29.273Z,7.70
2022-12-25T23:18:23.980Z,7.70
2022-12-25T23:21:23.424Z,7.74
2022-12-25T23:24:14.965Z,7.80
2022-12-25T23:26:48.783Z,7.80
2022-12-25T23:29:45.703Z,7.80
2022-12-25T23:32:24.971Z,7.80
2022-12-25T23:34:59.390Z,7.80
2022-12-25T23:37:34.475Z,7.80
2022-12-25T23:40:11.745Z,7.80
2022-12-25T23:42:46.962Z,7.80
2022-12-25T23:45:21.288Z,7.80
2022-12-25T23:47:55.494Z,7.80
2022-12-25T23:50:30.485Z,7.80
2022-12-25T23:53:04.161Z,7.80
2022-12-25T23:55:38.842Z,7.80
2022-12-25T23:58:12.765Z,7.80
